createdAt,value
2017-10-07T00:01:25.929Z,9.80
2017-10-07T00:03:53.408Z,10.10
2017-10-07T00:06:20.869Z,10.20
2017-10-07T00:08:49.109Z,10.10
2017-10-07T00:11:16.583Z,10.10
2017-10-07T00:13:44.278Z,10.00
2017-10-07T00:16:11.719Z,9.90
2017-10-07T00:18:39.954Z,9.90
2017-10-07T00:21:07.434Z,9.80
2017-10-07T00:23:35.698Z,9.80
2017-10-07T00:26:04.051Z,9.80
2017-10-07T00:28:31.521Z,9.80
2017-10-07T00:30:58.988Z,9.80
2017-10-07T00:33:26.468Z,9.80
2017-10-07T00:35:53.941Z,9.80
2017-10-07T00:38:21.402Z,9.70
2017-10-07T00:40:49.634Z,9.70
2017-10-07T00:43:17.133Z,9.60
2017-10-07T00:45:44.604Z,9.70
2017-10-07T00:48:12.825Z,9.80
2017-10-07T00:50:40.290Z,9.80
2017-10-07T00:53:07.765Z,9.80
2017-10-07T00:55:35.255Z,9.80
2017-10-07T00:58:02.718Z,9.80
2017-10-07T01:00:30.176Z,9.90
2017-10-07T01:02:58.466Z,9.80
2017-10-07T01:05:25.910Z,9.90
2017-10-07T01:07:53.399Z,9.90
2017-10-07T01:10:20.852Z,9.90
2017-10-07T01:12:48.316Z,10.10
2017-10-07T01:15:16.640Z,9.90
2017-10-07T01:17:44.126Z,9.90
2017-10-07T01:20:11.621Z,9.80
2017-10-07T01:22:39.845Z,10.10
2017-10-07T01:25:07.410Z,9.90
2017-10-07T01:27:35.680Z,9.90
2017-10-07T01:30:04.052Z,9.90
2017-10-07T01:32:32.283Z,9.80
2017-10-07T01:34:59.732Z,9.80
2017-10-07T01:37:27.976Z,9.80
2017-10-07T01:39:55.423Z,9.80
2017-10-07T01:42:22.905Z,9.90
2017-10-07T01:44:50.380Z,9.80
2017-10-07T01:47:17.852Z,9.80
2017-10-07T01:49:46.105Z,9.80
2017-10-07T01:52:13.562Z,9.70
2017-10-07T01:54:41.017Z,9.90
2017-10-07T01:57:09.332Z,9.80
2017-10-07T01:59:37.551Z,9.70
2017-10-07T02:02:05.026Z,9.70
2017-10-07T02:04:32.489Z,9.70
2017-10-07T02:07:00.728Z,9.70
2017-10-07T02:09:28.192Z,9.70
2017-10-07T02:11:55.825Z,9.70
2017-10-07T02:14:23.342Z,9.80
2017-10-07T02:16:51.555Z,9.90
2017-10-07T02:19:19.043Z,9.80
2017-10-07T02:21:47.281Z,9.90
2017-10-07T02:24:15.530Z,10.00
2017-10-07T02:26:43.756Z,10.00
2017-10-07T02:29:11.225Z,9.90
2017-10-07T02:31:39.438Z,10.00
2017-10-07T02:34:06.908Z,10.00
2017-10-07T02:36:35.189Z,9.90
2017-10-07T02:39:03.424Z,9.90
2017-10-07T02:41:30.933Z,9.90
2017-10-07T02:43:58.394Z,9.80
2017-10-07T02:46:25.855Z,9.80
2017-10-07T02:48:53.336Z,9.80
2017-10-07T02:51:20.792Z,9.80
2017-10-07T02:53:48.425Z,9.80
2017-10-07T02:56:15.867Z,9.90
2017-10-07T02:58:44.091Z,9.90
2017-10-07T03:01:11.548Z,9.90
2017-10-07T03:03:39.004Z,9.90
2017-10-07T03:06:07.276Z,9.70
2017-10-07T03:08:34.827Z,9.70
2017-10-07T03:11:03.047Z,9.60
2017-10-07T03:13:31.308Z,9.70
2017-10-07T03:15:58.781Z,9.60
2017-10-07T03:18:26.274Z,9.70
2017-10-07T03:20:54.634Z,9.70
2017-10-07T03:23:22.097Z,9.60
2017-10-07T03:25:49.578Z,9.60
2017-10-07T03:28:17.047Z,9.60
2017-10-07T03:30:45.273Z,9.80
2017-10-07T03:33:12.724Z,9.80
2017-10-07T03:35:41.015Z,9.90
2017-10-07T03:38:08.497Z,9.90
2017-10-07T03:40:36.189Z,9.90
2017-10-07T03:43:03.758Z,9.90
2017-10-07T03:45:32.128Z,9.90
2017-10-07T03:48:00.373Z,10.00
2017-10-07T03:50:28.593Z,10.00
2017-10-07T03:52:56.975Z,10.10
2017-10-07T03:55:25.259Z,10.10
2017-10-07T03:57:52.726Z,10.10
2017-10-07T04:00:20.207Z,10.20
2017-10-07T04:02:47.676Z,10.20
2017-10-07T04:05:15.422Z,10.30
2017-10-07T04:07:43.639Z,10.30
2017-10-07T04:10:11.944Z,10.20
2017-10-07T04:12:39.413Z,10.20
2017-10-07T04:15:07.641Z,10.20
2017-10-07T04:17:36.008Z,10.20
2017-10-07T04:20:04.231Z,10.20
2017-10-07T04:22:31.708Z,10.20
2017-10-07T04:24:59.961Z,10.30
2017-10-07T04:27:27.431Z,10.20
2017-10-07T04:29:54.934Z,10.20
2017-10-07T04:32:23.175Z,10.30
2017-10-07T04:34:50.770Z,10.30
2017-10-07T04:37:18.229Z,10.30
2017-10-07T04:39:45.682Z,10.40
2017-10-07T04:42:13.927Z,10.20
2017-10-07T04:44:41.414Z,10.20
2017-10-07T04:47:09.048Z,10.20
2017-10-07T04:49:36.610Z,10.30
2017-10-07T04:52:04.103Z,10.20
2017-10-07T04:54:31.570Z,10.20
2017-10-07T04:56:59.795Z,10.10
2017-10-07T04:59:27.284Z,10.10
2017-10-07T05:01:55.505Z,10.10
2017-10-07T05:04:23.935Z,10.10
2017-10-07T05:06:52.187Z,10.10
2017-10-07T05:09:20.409Z,10.00
2017-10-07T05:11:48.769Z,10.10
2017-10-07T05:14:16.245Z,10.00
2017-10-07T05:16:43.735Z,10.10
2017-10-07T05:19:11.395Z,10.20
2017-10-07T05:21:39.618Z,10.30
2017-10-07T05:24:07.136Z,10.20
2017-10-07T05:26:35.384Z,10.30
2017-10-07T05:29:02.842Z,10.30
2017-10-07T05:31:31.090Z,10.40
2017-10-07T05:33:58.602Z,10.40
2017-10-07T05:36:26.852Z,10.60
2017-10-07T05:38:54.319Z,10.40
2017-10-07T05:41:21.823Z,10.40
2017-10-07T05:43:50.038Z,10.50
2017-10-07T05:46:17.488Z,10.50
2017-10-07T05:48:44.993Z,10.50
2017-10-07T05:51:12.446Z,10.60
2017-10-07T05:53:40.072Z,10.50
2017-10-07T05:56:07.553Z,10.60
2017-10-07T05:58:35.268Z,10.60
2017-10-07T06:01:03.499Z,10.60
2017-10-07T06:03:31.013Z,10.60
2017-10-07T06:05:58.631Z,10.70
2017-10-07T06:08:26.912Z,10.70
2017-10-07T06:10:54.379Z,10.70
2017-10-07T06:13:22.605Z,10.70
2017-10-07T06:15:50.069Z,10.70
2017-10-07T06:18:17.571Z,10.80
2017-10-07T06:20:45.053Z,10.80
2017-10-07T06:23:12.534Z,10.90
2017-10-07T06:25:40.000Z,10.90
2017-10-07T06:28:07.471Z,11.00
2017-10-07T06:30:34.985Z,11.10
2017-10-07T06:33:03.293Z,11.10
2017-10-07T06:35:30.809Z,11.10
2017-10-07T06:37:59.053Z,11.10
2017-10-07T06:40:27.426Z,11.10
2017-10-07T06:42:54.892Z,11.10
2017-10-07T06:45:22.525Z,11.30
2017-10-07T06:47:50.052Z,11.40
2017-10-07T06:50:17.855Z,11.40
2017-10-07T06:52:46.273Z,11.50
2017-10-07T06:55:13.745Z,11.60
2017-10-07T06:57:41.246Z,11.70
2017-10-07T07:00:08.767Z,11.90
2017-10-07T07:02:36.253Z,11.90
2017-10-07T07:05:03.755Z,12.00
2017-10-07T07:07:32.006Z,12.00
2017-10-07T07:09:59.529Z,12.00
2017-10-07T07:12:27.798Z,12.20
2017-10-07T07:14:55.247Z,12.10
2017-10-07T07:17:22.731Z,12.20
2017-10-07T07:19:50.189Z,12.20
2017-10-07T07:22:18.589Z,12.60
2017-10-07T07:24:46.836Z,12.90
2017-10-07T07:27:14.438Z,12.80
2017-10-07T07:29:41.912Z,13.20
2017-10-07T07:32:09.540Z,13.20
2017-10-07T07:34:37.828Z,13.60
2017-10-07T07:37:05.422Z,13.60
2017-10-07T07:39:33.662Z,13.60
2017-10-07T07:42:01.893Z,13.50
2017-10-07T07:44:29.391Z,13.50
2017-10-07T07:46:56.938Z,13.30
2017-10-07T07:49:24.505Z,13.10
2017-10-07T07:51:51.967Z,12.70
2017-10-07T07:54:19.530Z,12.60
2017-10-07T07:56:47.851Z,12.50
2017-10-07T07:59:15.331Z,12.50
2017-10-07T08:01:42.911Z,12.40
2017-10-07T08:04:11.149Z,12.30
2017-10-07T08:06:38.647Z,12.20
2017-10-07T08:09:06.866Z,12.40
2017-10-07T08:11:34.490Z,12.30
2017-10-07T08:14:01.970Z,12.30
2017-10-07T08:16:30.205Z,12.40
2017-10-07T08:18:57.699Z,12.40
2017-10-07T08:21:25.159Z,12.50
2017-10-07T08:23:52.752Z,12.60
2017-10-07T08:26:20.229Z,12.70
2017-10-07T08:28:47.697Z,12.70
2017-10-07T08:31:15.215Z,12.70
2017-10-07T08:33:42.672Z,12.70
2017-10-07T08:36:10.187Z,12.80
2017-10-07T08:38:37.655Z,12.90
2017-10-07T08:41:05.235Z,13.10
2017-10-07T08:43:32.715Z,13.20
2017-10-07T08:46:00.180Z,13.20
2017-10-07T08:48:27.664Z,13.20
2017-10-07T08:50:55.154Z,13.30
2017-10-07T08:53:23.419Z,13.50
2017-10-07T08:55:50.922Z,13.40
2017-10-07T08:58:18.539Z,13.40
2017-10-07T09:00:46.023Z,13.60
2017-10-07T09:03:13.510Z,13.70
2017-10-07T09:05:41.902Z,13.60
2017-10-07T09:08:09.360Z,13.70
2017-10-07T09:10:36.880Z,13.70
2017-10-07T09:13:04.359Z,13.80
2017-10-07T09:15:31.943Z,14.00
2017-10-07T09:17:59.429Z,14.10
2017-10-07T09:20:26.894Z,14.10
2017-10-07T09:22:54.378Z,14.10
2017-10-07T09:25:21.900Z,14.30
2017-10-07T09:27:49.387Z,14.20
2017-10-07T09:30:16.849Z,14.60
2017-10-07T09:32:44.310Z,14.60
2017-10-07T09:35:11.779Z,14.80
2017-10-07T09:37:40.023Z,15.10
2017-10-07T09:40:07.520Z,15.00
2017-10-07T09:42:35.091Z,15.00
2017-10-07T09:45:02.650Z,15.00
2017-10-07T09:47:30.128Z,15.00
2017-10-07T09:49:57.650Z,14.80
2017-10-07T09:52:25.112Z,14.70
2017-10-07T09:54:52.606Z,14.70
2017-10-07T09:57:20.072Z,14.40
2017-10-07T09:59:47.572Z,14.50
2017-10-07T10:02:15.064Z,14.50
2017-10-07T10:04:42.530Z,14.60
2017-10-07T10:07:10.001Z,14.80
2017-10-07T10:09:37.457Z,14.90
2017-10-07T10:12:05.147Z,15.00
2017-10-07T10:14:32.620Z,15.00
2017-10-07T10:17:00.104Z,15.20
2017-10-07T10:19:27.614Z,15.30
2017-10-07T10:21:55.153Z,15.30
2017-10-07T10:24:22.661Z,15.60
2017-10-07T10:26:50.173Z,16.00
2017-10-07T10:29:18.411Z,15.90
2017-10-07T10:31:45.956Z,16.10
2017-10-07T10:34:13.540Z,15.90
2017-10-07T10:36:47.726Z,15.60
2017-10-07T10:39:15.381Z,15.30
2017-10-07T10:41:42.843Z,15.10
2017-10-07T10:44:10.313Z,15.30
2017-10-07T10:46:37.808Z,15.60
2017-10-07T10:49:05.286Z,16.20
2017-10-07T10:51:32.931Z,16.20
2017-10-07T10:54:00.439Z,16.10
2017-10-07T10:56:27.903Z,16.10
2017-10-07T10:58:55.439Z,16.00
2017-10-07T11:01:22.894Z,15.90
2017-10-07T11:03:51.158Z,15.60
2017-10-07T11:06:19.392Z,15.50
2017-10-07T11:08:46.889Z,15.40
2017-10-07T11:11:14.365Z,15.30
2017-10-07T11:13:41.848Z,15.10
2017-10-07T11:16:09.334Z,14.90
2017-10-07T11:18:36.796Z,14.80
2017-10-07T11:21:04.478Z,14.60
2017-10-07T11:23:31.959Z,14.40
2017-10-07T11:25:59.424Z,14.50
2017-10-07T11:28:27.694Z,14.80
2017-10-07T11:30:55.163Z,14.80
2017-10-07T11:33:22.666Z,14.90
2017-10-07T11:35:50.118Z,15.00
2017-10-07T11:38:17.621Z,15.10
2017-10-07T11:40:45.195Z,15.10
2017-10-07T11:43:12.781Z,15.10
2017-10-07T11:45:40.249Z,15.20
2017-10-07T11:48:07.725Z,15.10
2017-10-07T11:50:35.205Z,15.00
2017-10-07T11:53:02.696Z,15.00
2017-10-07T11:55:30.171Z,14.90
2017-10-07T11:57:57.645Z,14.80
2017-10-07T12:00:25.236Z,14.80
2017-10-07T12:02:52.756Z,14.80
2017-10-07T12:05:20.307Z,15.00
2017-10-07T12:07:47.805Z,15.00
2017-10-07T12:10:15.285Z,14.90
2017-10-07T12:12:43.839Z,14.90
2017-10-07T12:15:12.076Z,14.90
2017-10-07T12:17:39.564Z,14.80
2017-10-07T12:20:07.816Z,15.00
2017-10-07T12:22:36.055Z,15.00
2017-10-07T12:25:03.667Z,14.90
2017-10-07T12:27:31.149Z,14.70
2017-10-07T12:29:58.667Z,15.00
2017-10-07T12:32:26.916Z,15.20
2017-10-07T12:34:54.389Z,15.10
2017-10-07T12:37:21.899Z,15.10
2017-10-07T12:39:49.412Z,15.20
2017-10-07T12:42:17.673Z,15.20
2017-10-07T12:44:45.380Z,15.20
2017-10-07T12:47:12.843Z,15.20
2017-10-07T12:49:40.331Z,15.10
2017-10-07T12:52:07.831Z,15.00
2017-10-07T12:54:36.094Z,15.00
2017-10-07T12:57:03.732Z,14.90
2017-10-07T12:59:31.977Z,15.00
2017-10-07T13:01:59.459Z,15.00
2017-10-07T13:04:26.941Z,15.10
2017-10-07T13:06:54.426Z,15.10
2017-10-07T13:09:21.886Z,15.10
2017-10-07T13:11:49.482Z,15.20
2017-10-07T13:14:16.957Z,15.20
2017-10-07T13:16:44.569Z,15.10
2017-10-07T13:19:12.040Z,15.10
2017-10-07T13:21:39.528Z,15.10
2017-10-07T13:24:07.029Z,15.10
2017-10-07T13:26:34.548Z,14.80
2017-10-07T13:29:02.831Z,15.20
2017-10-07T13:31:31.083Z,15.30
2017-10-07T13:33:58.621Z,15.30
2017-10-07T13:36:26.914Z,15.40
2017-10-07T13:38:54.366Z,15.30
2017-10-07T13:41:23.007Z,15.30
2017-10-07T13:43:51.240Z,15.30
2017-10-07T13:46:18.714Z,15.40
2017-10-07T13:48:46.956Z,15.50
2017-10-07T13:51:14.439Z,15.50
2017-10-07T13:53:42.031Z,15.60
2017-10-07T13:56:09.492Z,15.60
2017-10-07T13:58:36.980Z,15.60
2017-10-07T14:01:05.075Z,15.50
2017-10-07T14:03:32.548Z,15.60
2017-10-07T14:06:00.231Z,15.60
2017-10-07T14:08:27.702Z,15.50
2017-10-07T14:10:55.194Z,15.50
2017-10-07T14:13:22.697Z,15.50
2017-10-07T14:15:50.198Z,15.40
2017-10-07T14:18:17.685Z,15.40
2017-10-07T14:20:45.351Z,15.30
2017-10-07T14:23:12.819Z,15.40
2017-10-07T14:25:40.298Z,15.40
2017-10-07T14:28:07.779Z,15.40
2017-10-07T14:30:35.281Z,15.30
2017-10-07T14:33:02.788Z,15.40
2017-10-07T14:35:30.285Z,15.30
2017-10-07T14:37:58.686Z,15.30
2017-10-07T14:40:26.176Z,15.30
2017-10-07T14:42:53.672Z,15.30
2017-10-07T14:45:21.928Z,15.20
2017-10-07T14:47:49.408Z,15.20
2017-10-07T14:50:16.898Z,15.20
2017-10-07T14:52:44.397Z,15.10
2017-10-07T14:55:12.021Z,15.20
2017-10-07T14:57:39.534Z,15.20
2017-10-07T15:00:07.026Z,15.30
2017-10-07T15:02:35.318Z,15.40
2017-10-07T15:05:02.841Z,15.30
2017-10-07T15:07:30.316Z,15.10
2017-10-07T15:09:57.791Z,15.20
2017-10-07T15:12:25.315Z,15.10
2017-10-07T15:14:53.551Z,14.90
2017-10-07T15:17:21.041Z,15.10
2017-10-07T15:19:48.510Z,14.90
2017-10-07T15:22:15.996Z,14.90
2017-10-07T15:24:43.465Z,14.90
2017-10-07T15:27:11.075Z,14.90
2017-10-07T15:29:38.550Z,14.80
2017-10-07T15:32:06.193Z,14.80
2017-10-07T15:34:33.673Z,14.40
2017-10-07T15:37:01.993Z,14.60
2017-10-07T15:39:29.503Z,14.60
2017-10-07T15:41:56.979Z,14.60
2017-10-07T15:44:24.494Z,14.60
2017-10-07T15:46:52.108Z,14.70
2017-10-07T15:49:20.363Z,14.60
2017-10-07T15:51:47.870Z,14.60
2017-10-07T15:54:15.493Z,14.50
2017-10-07T15:56:42.983Z,14.50
2017-10-07T15:59:10.496Z,14.40
2017-10-07T16:01:37.985Z,14.50
2017-10-07T16:04:05.700Z,14.40
2017-10-07T16:06:33.953Z,14.40
2017-10-07T16:09:01.449Z,14.40
2017-10-07T16:11:29.036Z,14.40
2017-10-07T16:13:56.503Z,14.40
2017-10-07T16:16:23.978Z,14.40
2017-10-07T16:18:52.294Z,14.30
2017-10-07T16:21:19.894Z,14.30
2017-10-07T16:23:48.150Z,14.30
2017-10-07T16:26:15.637Z,14.30
2017-10-07T16:28:43.881Z,14.30
2017-10-07T16:31:12.112Z,14.30
2017-10-07T16:33:39.590Z,14.30
2017-10-07T16:36:07.066Z,14.30
2017-10-07T16:38:34.536Z,14.40
2017-10-07T16:41:02.774Z,14.20
2017-10-07T16:43:30.240Z,14.20
2017-10-07T16:45:57.730Z,14.20
2017-10-07T16:48:25.433Z,14.10
2017-10-07T16:50:53.043Z,14.10
2017-10-07T16:53:20.529Z,14.10
2017-10-07T16:55:48.034Z,14.10
2017-10-07T16:58:16.280Z,14.20
2017-10-07T17:00:43.827Z,13.70
2017-10-07T17:03:12.076Z,14.20
2017-10-07T17:05:39.546Z,14.00
2017-10-07T17:08:07.033Z,14.00
2017-10-07T17:10:34.504Z,13.90
2017-10-07T17:13:02.120Z,14.00
2017-10-07T17:15:29.579Z,13.70
2017-10-07T17:17:57.053Z,13.90
2017-10-07T17:20:24.557Z,13.90
2017-10-07T17:22:52.050Z,13.90
2017-10-07T17:25:19.823Z,13.80
2017-10-07T17:27:48.079Z,13.80
2017-10-07T17:30:15.612Z,13.80
2017-10-07T17:32:43.128Z,13.80
2017-10-07T17:35:11.379Z,13.60
2017-10-07T17:37:38.883Z,13.80
2017-10-07T17:40:06.395Z,13.80
2017-10-07T17:42:34.790Z,13.80
2017-10-07T17:45:02.308Z,13.70
2017-10-07T17:47:30.544Z,13.80
2017-10-07T17:49:58.036Z,13.80
2017-10-07T17:52:25.741Z,13.80
2017-10-07T17:54:53.262Z,13.90
2017-10-07T17:57:21.507Z,13.90
2017-10-07T17:59:48.982Z,13.90
2017-10-07T18:02:16.690Z,13.90
2017-10-07T18:04:44.187Z,13.70
2017-10-07T18:07:11.667Z,13.90
2017-10-07T18:09:39.156Z,13.90
2017-10-07T18:12:07.414Z,14.00
2017-10-07T18:14:34.920Z,13.90
2017-10-07T18:17:02.394Z,14.00
2017-10-07T18:19:29.906Z,14.00
2017-10-07T18:21:58.271Z,13.90
2017-10-07T18:24:25.863Z,13.90
2017-10-07T18:26:53.365Z,13.90
2017-10-07T18:29:20.991Z,13.90
2017-10-07T18:31:48.468Z,13.90
2017-10-07T18:34:15.955Z,13.80
2017-10-07T18:36:43.981Z,13.80
2017-10-07T18:39:11.688Z,13.80
2017-10-07T18:41:39.329Z,13.80
2017-10-07T18:44:06.915Z,13.80
2017-10-07T18:46:34.391Z,13.70
2017-10-07T18:49:02.150Z,13.70
2017-10-07T18:51:29.667Z,13.70
2017-10-07T18:53:57.155Z,13.80
2017-10-07T18:56:25.143Z,13.80
2017-10-07T18:58:52.646Z,13.80
2017-10-07T19:01:20.400Z,13.70
2017-10-07T19:03:48.648Z,13.70
2017-10-07T19:06:16.340Z,13.40
2017-10-07T19:08:43.818Z,13.70
2017-10-07T19:11:11.302Z,13.70
2017-10-07T19:13:38.798Z,13.60
2017-10-07T19:16:06.267Z,13.60
2017-10-07T19:18:33.947Z,13.60
2017-10-07T19:21:01.438Z,13.60
2017-10-07T19:23:28.941Z,13.60
2017-10-07T19:25:56.469Z,13.60
2017-10-07T19:28:24.328Z,13.70
2017-10-07T19:30:52.598Z,13.70
2017-10-07T19:33:20.104Z,13.70
2017-10-07T19:35:48.627Z,13.80
2017-10-07T19:38:16.306Z,13.70
2017-10-07T19:40:44.708Z,13.80
2017-10-07T19:43:12.939Z,13.90
2017-10-07T19:45:40.430Z,13.70
2017-10-07T19:48:08.106Z,13.80
2017-10-07T19:50:35.617Z,13.80
2017-10-07T19:53:03.108Z,13.80
2017-10-07T19:55:30.581Z,13.80
2017-10-07T19:57:58.077Z,13.80
2017-10-07T20:00:25.605Z,14.00
2017-10-07T20:02:53.297Z,13.90
2017-10-07T20:05:21.534Z,13.80
2017-10-07T20:07:49.200Z,13.80
2017-10-07T20:10:16.894Z,13.80
2017-10-07T20:12:44.381Z,13.80
2017-10-07T20:15:11.910Z,13.80
2017-10-07T20:17:39.570Z,13.80
2017-10-07T20:20:07.378Z,13.80
2017-10-07T20:22:35.830Z,13.80
2017-10-07T20:25:03.633Z,13.80
2017-10-07T20:27:31.123Z,13.80
2017-10-07T20:29:58.643Z,13.50
2017-10-07T20:32:26.412Z,13.80
2017-10-07T20:34:53.900Z,13.80
2017-10-07T20:37:21.396Z,13.60
2017-10-07T20:39:48.880Z,13.70
2017-10-07T20:42:16.563Z,13.70
2017-10-07T20:44:44.033Z,13.70
2017-10-07T20:47:11.514Z,13.70
2017-10-07T20:49:38.999Z,13.70
2017-10-07T20:52:06.470Z,13.70
2017-10-07T20:54:33.967Z,13.70
2017-10-07T20:57:01.458Z,13.70
2017-10-07T20:59:28.951Z,13.70
2017-10-07T21:01:56.413Z,13.70
2017-10-07T21:04:23.877Z,13.60
2017-10-07T21:06:51.356Z,13.50
2017-10-07T21:09:18.840Z,13.50
2017-10-07T21:11:46.318Z,13.50
2017-10-07T21:14:13.770Z,13.50
2017-10-07T21:16:41.378Z,13.20
2017-10-07T21:19:08.885Z,13.50
2017-10-07T21:21:36.359Z,13.50
2017-10-07T21:24:03.874Z,13.60
2017-10-07T21:26:31.331Z,13.60
2017-10-07T21:28:58.814Z,13.60
2017-10-07T21:31:26.476Z,13.60
2017-10-07T21:33:53.980Z,13.60
2017-10-07T21:36:21.688Z,13.70
2017-10-07T21:38:49.393Z,13.60
2017-10-07T21:41:16.865Z,13.60
2017-10-07T21:43:44.390Z,13.60
2017-10-07T21:46:11.916Z,13.60
2017-10-07T21:48:39.401Z,13.70
2017-10-07T21:51:07.271Z,13.40
2017-10-07T21:53:34.758Z,13.50
2017-10-07T21:56:02.222Z,13.60
2017-10-07T21:58:29.711Z,13.60
2017-10-07T22:00:57.226Z,13.60
2017-10-07T22:03:24.875Z,13.50
2017-10-07T22:05:52.429Z,13.60
2017-10-07T22:08:20.938Z,13.50
2017-10-07T22:10:48.480Z,13.20
2017-10-07T22:13:16.049Z,13.40
2017-10-07T22:15:43.607Z,13.10
2017-10-07T22:18:11.182Z,13.30
2017-10-07T22:20:38.795Z,13.40
2017-10-07T22:23:06.407Z,13.40
2017-10-07T22:25:33.926Z,13.40
2017-10-07T22:28:02.217Z,13.30
2017-10-07T22:30:30.470Z,13.20
2017-10-07T22:32:57.953Z,13.20
2017-10-07T22:35:25.456Z,13.20
2017-10-07T22:37:52.993Z,13.20
2017-10-07T22:40:20.493Z,13.20
2017-10-07T22:42:48.096Z,13.20
2017-10-07T22:45:15.600Z,13.20
2017-10-07T22:47:43.084Z,13.20
2017-10-07T22:50:11.496Z,13.10
2017-10-07T22:52:39.775Z,13.10
2017-10-07T22:55:07.274Z,13.10
2017-10-07T22:57:34.761Z,13.20
2017-10-07T23:00:03.187Z,13.00
2017-10-07T23:02:30.695Z,13.00
2017-10-07T23:04:58.189Z,12.60
2017-10-07T23:07:25.773Z,12.80
2017-10-07T23:09:53.235Z,12.60
2017-10-07T23:12:20.899Z,12.70
2017-10-07T23:14:49.148Z,12.60
2017-10-07T23:17:16.743Z,12.50
2017-10-07T23:19:44.234Z,12.50
2017-10-07T23:22:11.722Z,12.40
2017-10-07T23:24:39.214Z,12.30
2017-10-07T23:27:06.689Z,12.00
2017-10-07T23:29:34.171Z,12.00
2017-10-07T23:32:01.696Z,11.90
2017-10-07T23:34:29.146Z,11.90
2017-10-07T23:36:56.699Z,11.80
2017-10-07T23:39:24.194Z,11.80
2017-10-07T23:41:51.689Z,11.80
2017-10-07T23:44:19.154Z,11.80
2017-10-07T23:46:46.638Z,11.90
2017-10-07T23:49:14.121Z,11.90
2017-10-07T23:51:41.583Z,12.00
2017-10-07T23:54:09.068Z,12.00
2017-10-07T23:56:36.561Z,12.00
2017-10-07T23:59:04.055Z,12.10
